Time;durP1;ratioP1;P1;durP2;ratioP2;P2;SDS_P1;SDS_P2;PMS_P1;PMS_P2;Temp;Humidity;BMP_temperature;BMP_pressure;BME280_temperature;BME280_humidity;BME280_pressure;Samples;Min_cycle;Max_cycle;Signal;HPM_P1;HPM_P2
2024/02/05 00:01:19;;;;;;;0.10;0.10;;;;;;;;;;5054562;28;20259;-72
2024/02/05 00:03:45;;;;;;;0.10;0.10;;;;;;;;;;5065128;28;20212;-72
2024/02/05 00:06:12;;;;;;;0.20;0.20;;;;;;;;;;5054375;28;20240;-71
2024/02/05 00:08:39;;;;;;;0.10;0.10;;;;;;;;;;5064894;28;20220;-71
2024/02/05 00:11:07;;;;;;;0.10;0.10;;;;;;;;;;5054568;28;20240;-71
2024/02/05 00:13:33;;;;;;;0.10;0.10;;;;;;;;;;5064812;28;20278;-71
2024/02/05 00:16:00;;;;;;;0.10;0.10;;;;;;;;;;5054641;28;20252;-71
2024/02/05 00:18:26;;;;;;;0.10;0.10;;;;;;;;;;5064649;28;20271;-71
2024/02/05 00:20:53;;;;;;;0.10;0.10;;;;;;;;;;5054517;28;20262;-71
2024/02/05 00:23:19;;;;;;;0.10;0.10;;;;;;;;;;5064249;28;20229;-71
2024/02/05 00:25:46;;;;;;;0.20;0.20;;;;;;;;;;5054383;28;20268;-71
2024/02/05 00:28:13;;;;;;;0.10;0.10;;;;;;;;;;5064182;28;20259;-71
2024/02/05 00:30:40;;;;;;;0.10;0.10;;;;;;;;;;5054523;28;20242;-71
2024/02/05 00:33:06;;;;;;;0.10;0.10;;;;;;;;;;5064397;28;20193;-71
2024/02/05 00:35:32;;;;;;;0.10;0.10;;;;;;;;;;5054386;28;20243;-72
2024/02/05 00:37:59;;;;;;;0.20;0.20;;;;;;;;;;5064171;28;20447;-71
2024/02/05 00:40:26;;;;;;;0.10;0.10;;;;;;;;;;5054080;28;20453;-71
2024/02/05 00:42:52;;;;;;;0.10;0.10;;;;;;;;;;5063688;28;20246;-71
2024/02/05 00:45:20;;;;;;;0.10;0.10;;;;;;;;;;5054343;28;20434;-71
2024/02/05 00:47:47;;;;;;;0.10;0.10;;;;;;;;;;5063563;28;20234;-72
2024/02/05 00:50:13;;;;;;;0.10;0.10;;;;;;;;;;5054045;28;20398;-71
2024/02/05 00:52:39;;;;;;;0.10;0.10;;;;;;;;;;5063427;28;20552;-71
2024/02/05 00:55:06;;;;;;;0.10;0.10;;;;;;;;;;5064324;28;20240;-72
2024/02/05 00:57:33;;;;;;;0.10;0.10;;;;;;;;;;5052949;28;20286;-71
2024/02/05 01:00:00;;;;;;;0.10;0.10;;;;;;;;;;5063744;28;20455;-71
2024/02/05 01:02:27;;;;;;;0.10;0.10;;;;;;;;;;5052942;28;20502;-71
2024/02/05 01:04:54;;;;;;;0.10;0.10;;;;;;;;;;5064046;28;20212;-71
2024/02/05 01:07:20;;;;;;;0.10;0.10;;;;;;;;;;5052718;28;20244;-71
2024/02/05 01:09:47;;;;;;;0.10;0.10;;;;;;;;;;5064034;28;20246;-69
2024/02/05 01:12:13;;;;;;;0.10;0.10;;;;;;;;;;5052760;28;20241;-70
2024/02/05 01:14:39;;;;;;;0.17;0.17;;;;;;;;;;5063763;28;20211;-71
2024/02/05 01:17:06;;;;;;;0.10;0.10;;;;;;;;;;5052783;28;20314;-70
2024/02/05 01:19:33;;;;;;;0.10;0.10;;;;;;;;;;5063927;28;20396;-71
2024/02/05 01:22:00;;;;;;;0.10;0.10;;;;;;;;;;5052700;28;20251;-70
2024/02/05 01:24:26;;;;;;;0.10;0.10;;;;;;;;;;5063605;28;20268;-70
2024/02/05 01:26:52;;;;;;;0.10;0.10;;;;;;;;;;5052634;28;20448;-71
2024/02/05 01:29:19;;;;;;;0.10;0.10;;;;;;;;;;5063588;28;20246;-71
2024/02/05 01:31:45;;;;;;;0.10;0.10;;;;;;;;;;5052597;28;20236;-71
2024/02/05 01:34:12;;;;;;;0.10;0.10;;;;;;;;;;5063536;28;20227;-71
2024/02/05 01:36:40;;;;;;;0.10;0.10;;;;;;;;;;5052557;28;20641;-70
2024/02/05 01:39:06;;;;;;;0.10;0.10;;;;;;;;;;5063433;28;20238;-71
2024/02/05 01:41:33;;;;;;;0.10;0.10;;;;;;;;;;5052343;28;20267;-71
2024/02/05 01:43:59;;;;;;;0.10;0.10;;;;;;;;;;5063477;28;20447;-71
2024/02/05 01:46:26;;;;;;;0.10;0.10;;;;;;;;;;5052702;28;20241;-71
2024/02/05 01:48:54;;;;;;;0.10;0.10;;;;;;;;;;5063398;28;20300;-70
2024/02/05 01:51:22;;;;;;;0.10;0.10;;;;;;;;;;5052630;28;20242;-71
2024/02/05 01:53:51;;;;;;;0.10;0.10;;;;;;;;;;5063231;28;20452;-69
2024/02/05 01:56:19;;;;;;;0.10;0.10;;;;;;;;;;5052610;28;20248;-71
2024/02/05 01:58:45;;;;;;;0.10;0.10;;;;;;;;;;5063224;28;20379;-72
2024/02/05 02:01:12;;;;;;;0.20;0.20;;;;;;;;;;5052544;28;20267;-70
2024/02/05 02:03:40;;;;;;;0.10;0.10;;;;;;;;;;5063007;28;20212;-71
2024/02/05 02:06:07;;;;;;;0.10;0.10;;;;;;;;;;5052245;28;20263;-71
2024/02/05 02:08:34;;;;;;;0.10;0.10;;;;;;;;;;5062621;28;20252;-71
2024/02/05 02:11:03;;;;;;;0.10;0.10;;;;;;;;;;5055570;28;20641;-71
2024/02/05 02:13:30;;;;;;;0.10;0.10;;;;;;;;;;5066731;28;20204;-72
2024/02/05 02:15:57;;;;;;;0.10;0.10;;;;;;;;;;5056809;28;20283;-71
2024/02/05 02:18:26;;;;;;;0.10;0.10;;;;;;;;;;5067081;28;20206;-71
2024/02/05 02:20:53;;;;;;;0.10;0.10;;;;;;;;;;5056613;28;20240;-71
2024/02/05 02:23:22;;;;;;;0.10;0.10;;;;;;;;;;5066946;28;20197;-70
2024/02/05 02:25:49;;;;;;;0.13;0.13;;;;;;;;;;5056669;28;20541;-71
2024/02/05 02:28:15;;;;;;;0.10;0.10;;;;;;;;;;5066396;28;20208;-71
2024/02/05 02:30:42;;;;;;;0.10;0.10;;;;;;;;;;5056706;28;20492;-72
2024/02/05 02:33:13;;;;;;;0.10;0.10;;;;;;;;;;5066345;28;20237;-70
2024/02/05 02:35:40;;;;;;;0.10;0.10;;;;;;;;;;5056516;28;20247;-71
2024/02/05 02:38:10;;;;;;;0.10;0.10;;;;;;;;;;5066271;28;20193;-71
2024/02/05 02:40:39;;;;;;;0.10;0.10;;;;;;;;;;5056387;28;20488;-70
2024/02/05 02:43:07;;;;;;;0.10;0.10;;;;;;;;;;5066047;28;20200;-70
2024/02/05 02:45:34;;;;;;;0.10;0.10;;;;;;;;;;5056528;28;20252;-70
2024/02/05 02:48:01;;;;;;;0.10;0.10;;;;;;;;;;5066254;28;20434;-70
2024/02/05 02:50:27;;;;;;;0.10;0.10;;;;;;;;;;5056242;28;20239;-70
2024/02/05 02:52:54;;;;;;;0.10;0.10;;;;;;;;;;5066091;28;20205;-70
2024/02/05 02:55:20;;;;;;;0.10;0.10;;;;;;;;;;5056263;28;20275;-71
2024/02/05 02:57:48;;;;;;;0.13;0.13;;;;;;;;;;5065622;28;20196;-70
2024/02/05 03:00:15;;;;;;;0.10;0.10;;;;;;;;;;5056180;28;20263;-70
2024/02/05 03:02:41;;;;;;;0.20;0.20;;;;;;;;;;5065019;28;20204;-71
2024/02/05 03:05:08;;;;;;;0.10;0.10;;;;;;;;;;5066416;28;20243;-71
2024/02/05 03:07:35;;;;;;;0.10;0.10;;;;;;;;;;5054745;28;20228;-70
2024/02/05 03:10:01;;;;;;;0.10;0.10;;;;;;;;;;5066639;28;20390;-71
2024/02/05 03:12:28;;;;;;;0.10;0.10;;;;;;;;;;5054916;28;20306;-71
2024/02/05 03:14:55;;;;;;;0.10;0.10;;;;;;;;;;5066316;28;20211;-69
2024/02/05 03:17:22;;;;;;;0.17;0.17;;;;;;;;;;5054971;28;20263;-70
2024/02/05 03:19:48;;;;;;;0.10;0.10;;;;;;;;;;5066445;28;20205;-72
2024/02/05 03:22:15;;;;;;;0.10;0.10;;;;;;;;;;5054032;28;20244;-70
2024/02/05 03:24:41;;;;;;;0.10;0.10;;;;;;;;;;5066358;28;20208;-69
2024/02/05 03:27:08;;;;;;;0.10;0.10;;;;;;;;;;5054747;28;20552;-70
2024/02/05 03:29:34;;;;;;;0.10;0.10;;;;;;;;;;5066203;28;20204;-70
2024/02/05 03:32:04;;;;;;;0.10;0.10;;;;;;;;;;5054697;28;20243;-70
2024/02/05 03:34:30;;;;;;;0.10;0.10;;;;;;;;;;5065970;28;20366;-72
2024/02/05 03:36:57;;;;;;;0.10;0.10;;;;;;;;;;5054511;28;20463;-70
2024/02/05 03:39:23;;;;;;;0.10;0.10;;;;;;;;;;5065837;28;20254;-71
2024/02/05 03:41:49;;;;;;;0.20;0.20;;;;;;;;;;5054637;28;20248;-72
2024/02/05 03:44:16;;;;;;;0.20;0.20;;;;;;;;;;5065472;28;20210;-70
2024/02/05 03:46:42;;;;;;;0.10;0.10;;;;;;;;;;5054254;28;20501;-70
2024/02/05 03:49:10;;;;;;;0.10;0.10;;;;;;;;;;5065371;28;20279;-70
2024/02/05 03:51:36;;;;;;;0.10;0.10;;;;;;;;;;5054575;28;20305;-71
2024/02/05 03:54:04;;;;;;;0.20;0.20;;;;;;;;;;5065241;28;20211;-70
2024/02/05 03:56:31;;;;;;;0.20;0.20;;;;;;;;;;5054508;28;20291;-71
2024/02/05 03:58:57;;;;;;;0.10;0.10;;;;;;;;;;5065122;28;20265;-70
2024/02/05 04:01:24;;;;;;;0.10;0.10;;;;;;;;;;5054221;28;20243;-71
2024/02/05 04:03:50;;;;;;;0.10;0.10;;;;;;;;;;5065307;28;20291;-72
2024/02/05 04:06:18;;;;;;;0.10;0.10;;;;;;;;;;5054466;28;20307;-71
2024/02/05 04:08:44;;;;;;;0.10;0.10;;;;;;;;;;5064831;28;20236;-71
2024/02/05 04:11:11;;;;;;;0.10;0.10;;;;;;;;;;5054245;28;20298;-71
2024/02/05 04:13:37;;;;;;;0.10;0.10;;;;;;;;;;5064755;28;20197;-71
2024/02/05 04:16:05;;;;;;;0.10;0.10;;;;;;;;;;5054518;28;20260;-71
2024/02/05 04:18:31;;;;;;;0.10;0.10;;;;;;;;;;5064529;28;20208;-71
2024/02/05 04:21:03;;;;;;;0.10;0.10;;;;;;;;;;5054304;28;20306;-70
2024/02/05 04:23:31;;;;;;;0.10;0.10;;;;;;;;;;5064781;28;20215;-70
2024/02/05 04:26:00;;;;;;;0.10;0.10;;;;;;;;;;5054085;28;20260;-70
2024/02/05 04:28:31;;;;;;;0.10;0.10;;;;;;;;;;5064390;28;20271;-71
2024/02/05 04:30:57;;;;;;;0.10;0.10;;;;;;;;;;5054246;28;20318;-71
2024/02/05 04:33:24;;;;;;;0.10;0.10;;;;;;;;;;5063434;28;20243;-71
2024/02/05 04:35:50;;;;;;;0.10;0.10;;;;;;;;;;5054331;28;20281;-70
2024/02/05 04:38:17;;;;;;;0.10;0.10;;;;;;;;;;5063997;28;20200;-71
2024/02/05 04:40:44;;;;;;;0.10;0.10;;;;;;;;;;5053906;28;20589;-71
2024/02/05 04:43:11;;;;;;;0.10;0.10;;;;;;;;;;5064220;28;20446;-71
2024/02/05 04:45:38;;;;;;;0.10;0.10;;;;;;;;;;5054152;28;20260;-71
2024/02/05 04:48:04;;;;;;;0.10;0.10;;;;;;;;;;5063610;28;20400;-71
2024/02/05 04:50:31;;;;;;;0.10;0.10;;;;;;;;;;5054242;28;20249;-72
2024/02/05 04:52:57;;;;;;;0.10;0.10;;;;;;;;;;5063697;28;20199;-71
2024/02/05 04:55:23;;;;;;;0.10;0.10;;;;;;;;;;5054249;28;20277;-71
2024/02/05 04:57:51;;;;;;;0.10;0.10;;;;;;;;;;5063272;28;20269;-71
2024/02/05 05:00:18;;;;;;;0.10;0.10;;;;;;;;;;5054018;28;20208;-71
2024/02/05 05:02:44;;;;;;;0.10;0.10;;;;;;;;;;5063090;28;20266;-71
2024/02/05 05:05:11;;;;;;;0.10;0.10;;;;;;;;;;5062506;28;20215;-74
2024/02/05 05:07:37;;;;;;;0.10;0.10;;;;;;;;;;5060904;28;20245;-71
2024/02/05 05:10:04;;;;;;;0.20;0.20;;;;;;;;;;5064118;28;20228;-71
2024/02/05 05:12:30;;;;;;;0.10;0.10;;;;;;;;;;5052692;28;20563;-71
2024/02/05 05:14:58;;;;;;;0.20;0.20;;;;;;;;;;5063903;28;20217;-72
2024/02/05 05:17:25;;;;;;;0.10;0.10;;;;;;;;;;5052605;28;20506;-70
2024/02/05 05:19:51;;;;;;;0.10;0.10;;;;;;;;;;5064224;28;20204;-71
2024/02/05 05:22:17;;;;;;;0.10;0.10;;;;;;;;;;5052472;28;20243;-71
2024/02/05 05:24:44;;;;;;;0.20;0.20;;;;;;;;;;5064060;28;20208;-72
2024/02/05 05:27:11;;;;;;;0.10;0.10;;;;;;;;;;5052593;28;20248;-71
2024/02/05 05:29:38;;;;;;;0.10;0.10;;;;;;;;;;5063992;28;20243;-71
2024/02/05 05:32:06;;;;;;;0.10;0.10;;;;;;;;;;5052418;28;20237;-72
2024/02/05 05:34:32;;;;;;;0.10;0.10;;;;;;;;;;5063622;28;20232;-71
2024/02/05 05:36:59;;;;;;;0.10;0.10;;;;;;;;;;5052396;28;20246;-71
2024/02/05 05:39:25;;;;;;;0.10;0.10;;;;;;;;;;5063502;28;20204;-72
2024/02/05 05:41:52;;;;;;;0.10;0.10;;;;;;;;;;5052268;28;20303;-71
2024/02/05 05:44:18;;;;;;;0.10;0.10;;;;;;;;;;5063442;28;20354;-71
2024/02/05 05:46:45;;;;;;;0.10;0.10;;;;;;;;;;5041864;28;20235;-71
2024/02/05 05:49:12;;;;;;;0.10;0.10;;;;;;;;;;5063302;28;20239;-71
2024/02/05 05:51:39;;;;;;;0.10;0.10;;;;;;;;;;5052402;28;20235;-71
2024/02/05 05:54:06;;;;;;;0.10;0.10;;;;;;;;;;5063433;28;20636;-72
2024/02/05 05:56:33;;;;;;;0.10;0.10;;;;;;;;;;5052310;28;20243;-71
2024/02/05 05:58:59;;;;;;;0.10;0.10;;;;;;;;;;5063427;28;20429;-71
2024/02/05 06:01:26;;;;;;;0.10;0.10;;;;;;;;;;5052316;28;20239;-71
2024/02/05 06:03:52;;;;;;;0.10;0.10;;;;;;;;;;5063119;28;20228;-71
2024/02/05 06:06:20;;;;;;;0.10;0.10;;;;;;;;;;5052036;28;20240;-71
2024/02/05 06:08:48;;;;;;;0.10;0.10;;;;;;;;;;5062813;28;20205;-71
2024/02/05 06:11:15;;;;;;;0.10;0.10;;;;;;;;;;5052351;28;20417;-71
2024/02/05 06:13:42;;;;;;;0.10;0.10;;;;;;;;;;5062662;28;20226;-72
2024/02/05 06:16:09;;;;;;;0.10;0.10;;;;;;;;;;5052195;28;20240;-71
2024/02/05 06:18:35;;;;;;;0.10;0.10;;;;;;;;;;5062905;28;20206;-71
2024/02/05 06:21:02;;;;;;;0.10;0.10;;;;;;;;;;5052558;28;20429;-71
2024/02/05 06:23:30;;;;;;;0.10;0.10;;;;;;;;;;5062752;28;20504;-71
2024/02/05 06:25:56;;;;;;;0.10;0.10;;;;;;;;;;5052481;28;20248;-72
2024/02/05 06:28:23;;;;;;;0.10;0.10;;;;;;;;;;5062661;28;20279;-71
2024/02/05 06:30:50;;;;;;;0.10;0.10;;;;;;;;;;5052264;28;20360;-72
2024/02/05 06:33:17;;;;;;;0.10;0.10;;;;;;;;;;5062184;28;20273;-72
2024/02/05 06:35:43;;;;;;;0.20;0.20;;;;;;;;;;5052454;28;20241;-71
2024/02/05 06:38:10;;;;;;;0.10;0.10;;;;;;;;;;5062430;28;20220;-71
2024/02/05 06:40:38;;;;;;;0.10;0.10;;;;;;;;;;5052587;28;20240;-71
2024/02/05 06:43:04;;;;;;;0.10;0.10;;;;;;;;;;5062006;28;20248;-72
2024/02/05 06:45:31;;;;;;;0.10;0.10;;;;;;;;;;5052535;28;20266;-71
2024/02/05 06:47:58;;;;;;;0.10;0.10;;;;;;;;;;5061940;28;20227;-71
2024/02/05 06:50:24;;;;;;;0.20;0.20;;;;;;;;;;5052785;28;20276;-71
2024/02/05 06:52:51;;;;;;;0.10;0.10;;;;;;;;;;5062188;28;20225;-71
2024/02/05 06:55:18;;;;;;;0.10;0.10;;;;;;;;;;5052593;28;20204;-72
2024/02/05 06:57:45;;;;;;;0.10;0.10;;;;;;;;;;5064178;28;20485;-71
2024/02/05 07:00:12;;;;;;;0.10;0.10;;;;;;;;;;5056362;28;20243;-71
2024/02/05 07:02:39;;;;;;;0.10;0.10;;;;;;;;;;5065435;28;20212;-71
2024/02/05 07:05:06;;;;;;;0.10;0.10;;;;;;;;;;5066827;28;20208;-72
2024/02/05 07:07:32;;;;;;;0.10;0.10;;;;;;;;;;5054884;28;20264;-71
2024/02/05 07:10:00;;;;;;;0.10;0.10;;;;;;;;;;5066762;28;20250;-71
2024/02/05 07:12:26;;;;;;;0.10;0.10;;;;;;;;;;5055072;28;20245;-71
2024/02/05 07:14:54;;;;;;;0.10;0.10;;;;;;;;;;5066622;28;20420;-71
2024/02/05 07:17:30;;;;;;;0.10;0.10;;;;;;;;;;5054819;28;20245;-70
2024/02/05 07:19:58;;;;;;;0.10;0.10;;;;;;;;;;5066607;28;20211;-71
2024/02/05 07:22:24;;;;;;;0.17;0.17;;;;;;;;;;5054841;28;20235;-71
2024/02/05 07:24:51;;;;;;;0.10;0.10;;;;;;;;;;5066240;28;20213;-71
2024/02/05 07:27:17;;;;;;;0.10;0.10;;;;;;;;;;5054706;28;20311;-72
2024/02/05 07:29:45;;;;;;;0.10;0.10;;;;;;;;;;5066111;28;20215;-74
2024/02/05 07:32:12;;;;;;;0.10;0.10;;;;;;;;;;5054540;28;20236;-72
2024/02/05 07:34:40;;;;;;;0.10;0.10;;;;;;;;;;5066232;28;20204;-68
2024/02/05 07:37:06;;;;;;;0.10;0.10;;;;;;;;;;5054520;28;20289;-71
2024/02/05 07:39:32;;;;;;;0.10;0.10;;;;;;;;;;5065894;28;20236;-71
2024/02/05 07:41:59;;;;;;;0.10;0.10;;;;;;;;;;5054531;28;20573;-70
2024/02/05 07:44:25;;;;;;;0.10;0.10;;;;;;;;;;5065703;28;20197;-71
2024/02/05 07:46:52;;;;;;;0.10;0.10;;;;;;;;;;5054572;28;20257;-71
2024/02/05 07:49:20;;;;;;;0.10;0.10;;;;;;;;;;5065680;28;20205;-71
2024/02/05 07:51:47;;;;;;;0.13;0.13;;;;;;;;;;5054620;28;20236;-72
2024/02/05 07:54:14;;;;;;;0.10;0.10;;;;;;;;;;5065541;28;20204;-71
2024/02/05 07:56:41;;;;;;;0.10;0.10;;;;;;;;;;5054652;28;20275;-72
2024/02/05 07:59:08;;;;;;;0.10;0.10;;;;;;;;;;5065621;28;20243;-71
2024/02/05 08:01:34;;;;;;;0.10;0.10;;;;;;;;;;5054369;28;20240;-72
2024/02/05 08:04:00;;;;;;;0.13;0.13;;;;;;;;;;5065215;28;20207;-71
2024/02/05 08:06:29;;;;;;;0.10;0.10;;;;;;;;;;5054311;28;20249;-71
2024/02/05 08:08:55;;;;;;;0.10;0.10;;;;;;;;;;5064813;28;20245;-72
2024/02/05 08:11:21;;;;;;;0.10;0.10;;;;;;;;;;5054548;28;20242;-71
2024/02/05 08:13:48;;;;;;;0.10;0.10;;;;;;;;;;5064822;28;20203;-71
2024/02/05 08:16:14;;;;;;;0.10;0.10;;;;;;;;;;5054624;28;20447;-72
2024/02/05 08:18:41;;;;;;;0.10;0.10;;;;;;;;;;5064693;28;20382;-71
2024/02/05 08:21:08;;;;;;;0.10;0.10;;;;;;;;;;5054551;28;20299;-72
2024/02/05 08:23:35;;;;;;;0.10;0.10;;;;;;;;;;5064707;28;20262;-72
2024/02/05 08:26:02;;;;;;;0.10;0.10;;;;;;;;;;5054521;28;20258;-73
2024/02/05 08:28:28;;;;;;;0.10;0.10;;;;;;;;;;5064337;28;20229;-73
2024/02/05 08:30:55;;;;;;;0.10;0.10;;;;;;;;;;5054529;28;20443;-73
2024/02/05 08:33:21;;;;;;;0.10;0.10;;;;;;;;;;5064599;28;20296;-72
2024/02/05 08:35:47;;;;;;;0.10;0.10;;;;;;;;;;5054211;28;20240;-73
2024/02/05 08:38:14;;;;;;;0.10;0.10;;;;;;;;;;5064007;28;20216;-72
2024/02/05 08:40:42;;;;;;;0.10;0.10;;;;;;;;;;5054289;28;20340;-73
2024/02/05 08:43:08;;;;;;;0.10;0.10;;;;;;;;;;5063848;28;20253;-73
2024/02/05 08:45:34;;;;;;;0.10;0.10;;;;;;;;;;5054307;28;20269;-73
2024/02/05 08:48:02;;;;;;;0.10;0.10;;;;;;;;;;5063726;28;20205;-72
2024/02/05 08:50:33;;;;;;;0.10;0.10;;;;;;;;;;5054630;28;20307;-73
2024/02/05 08:52:59;;;;;;;0.10;0.10;;;;;;;;;;5063972;28;20463;-72
2024/02/05 08:55:26;;;;;;;0.10;0.10;;;;;;;;;;5054262;28;20206;-71
2024/02/05 08:57:54;;;;;;;0.10;0.10;;;;;;;;;;5063822;28;20225;-71
2024/02/05 09:00:21;;;;;;;0.10;0.10;;;;;;;;;;5054060;28;20277;-72
2024/02/05 09:02:48;;;;;;;0.10;0.10;;;;;;;;;;5063658;28;20218;-71
2024/02/05 09:05:15;;;;;;;0.10;0.10;;;;;;;;;;5054184;28;20199;-71
2024/02/05 09:07:41;;;;;;;0.10;0.10;;;;;;;;;;5063041;28;20308;-72
2024/02/05 09:10:08;;;;;;;0.10;0.10;;;;;;;;;;5064513;28;20241;-72
2024/02/05 09:12:34;;;;;;;0.10;0.10;;;;;;;;;;5052733;28;20240;-72
2024/02/05 09:15:02;;;;;;;0.10;0.10;;;;;;;;;;5064223;28;20204;-72
2024/02/05 09:17:29;;;;;;;0.10;0.10;;;;;;;;;;5052610;28;20562;-72
2024/02/05 09:19:55;;;;;;;0.10;0.10;;;;;;;;;;5063836;28;20255;-72
2024/02/05 09:22:21;;;;;;;0.10;0.10;;;;;;;;;;5052504;28;20282;-71
2024/02/05 09:24:48;;;;;;;0.10;0.10;;;;;;;;;;5064071;28;20214;-72
2024/02/05 09:27:14;;;;;;;0.10;0.10;;;;;;;;;;5052617;28;20292;-72
2024/02/05 09:29:41;;;;;;;0.10;0.10;;;;;;;;;;5063979;28;20212;-72
2024/02/05 09:32:09;;;;;;;0.10;0.10;;;;;;;;;;5052615;28;20460;-72
2024/02/05 09:34:36;;;;;;;0.10;0.10;;;;;;;;;;5063774;28;20212;-71
2024/02/05 09:37:02;;;;;;;0.10;0.10;;;;;;;;;;5052510;28;20478;-71
2024/02/05 09:39:29;;;;;;;0.10;0.10;;;;;;;;;;5063504;28;20204;-72
2024/02/05 09:41:59;;;;;;;0.10;0.10;;;;;;;;;;5052349;28;20243;-72
2024/02/05 09:44:27;;;;;;;0.10;0.10;;;;;;;;;;5063301;28;20227;-72
2024/02/05 09:46:55;;;;;;;0.10;0.10;;;;;;;;;;5052285;28;20238;-72
2024/02/05 09:49:23;;;;;;;0.10;0.10;;;;;;;;;;5063638;28;20405;-72
2024/02/05 09:51:49;;;;;;;0.40;0.40;;;;;;;;;;5052363;28;20248;-72
2024/02/05 09:54:16;;;;;;;0.10;0.10;;;;;;;;;;5063220;28;20234;-72
2024/02/05 09:56:43;;;;;;;0.10;0.10;;;;;;;;;;5052391;28;20486;-72
2024/02/05 09:59:09;;;;;;;0.10;0.10;;;;;;;;;;5063173;28;20406;-72
2024/02/05 10:01:36;;;;;;;0.10;0.10;;;;;;;;;;5052448;28;20259;-73
2024/02/05 10:04:03;;;;;;;0.10;0.10;;;;;;;;;;5062892;28;20228;-72
2024/02/05 10:06:33;;;;;;;0.10;0.10;;;;;;;;;;5052234;28;20242;-72
2024/02/05 10:09:01;;;;;;;0.10;0.10;;;;;;;;;;5062964;28;20205;-72
2024/02/05 10:11:28;;;;;;;0.10;0.10;;;;;;;;;;5052458;28;20243;-73
2024/02/05 10:13:55;;;;;;;0.10;0.10;;;;;;;;;;5063214;28;20207;-72
2024/02/05 10:16:22;;;;;;;0.10;0.10;;;;;;;;;;5052411;28;20495;-72
2024/02/05 10:18:48;;;;;;;0.10;0.10;;;;;;;;;;5062959;28;20400;-72
2024/02/05 10:21:14;;;;;;;0.10;0.10;;;;;;;;;;5052532;28;20245;-72
2024/02/05 10:23:43;;;;;;;0.10;0.10;;;;;;;;;;5062851;28;20422;-72
2024/02/05 10:26:10;;;;;;;0.10;0.10;;;;;;;;;;5052375;28;20239;-72
2024/02/05 10:28:38;;;;;;;0.10;0.10;;;;;;;;;;5062465;28;20403;-72
2024/02/05 10:31:05;;;;;;;0.10;0.10;;;;;;;;;;5052179;28;20246;-72
2024/02/05 10:33:31;;;;;;;0.37;0.37;;;;;;;;;;5066013;28;20271;-73
2024/02/05 10:35:58;;;;;;;0.10;0.10;;;;;;;;;;5056429;28;20580;-72
2024/02/05 10:38:25;;;;;;;0.10;0.10;;;;;;;;;;5066519;28;20479;-71
2024/02/05 10:40:52;;;;;;;0.10;0.10;;;;;;;;;;5056375;28;20616;-71
2024/02/05 10:43:19;;;;;;;0.10;0.10;;;;;;;;;;5066252;28;20220;-71
2024/02/05 10:45:45;;;;;;;0.10;0.10;;;;;;;;;;5056408;28;20511;-70
2024/02/05 10:48:12;;;;;;;0.10;0.10;;;;;;;;;;5066024;28;20238;-71
2024/02/05 10:50:38;;;;;;;0.10;0.10;;;;;;;;;;5056445;28;20495;-71
2024/02/05 10:53:05;;;;;;;0.10;0.10;;;;;;;;;;5065641;28;20208;-71
2024/02/05 10:55:32;;;;;;;0.10;0.10;;;;;;;;;;5056205;28;20271;-72
2024/02/05 10:58:00;;;;;;;0.10;0.10;;;;;;;;;;5065723;28;20231;-71
2024/02/05 11:00:27;;;;;;;0.10;0.10;;;;;;;;;;5055908;28;20211;-72
2024/02/05 11:02:55;;;;;;;0.10;0.10;;;;;;;;;;5065326;28;20252;-71
2024/02/05 11:05:23;;;;;;;0.10;0.10;;;;;;;;;;5056283;28;20237;-71
2024/02/05 11:07:50;;;;;;;0.10;0.10;;;;;;;;;;5064916;28;20306;-71
2024/02/05 11:10:17;;;;;;;0.10;0.10;;;;;;;;;;5056268;28;20290;-71
2024/02/05 11:12:44;;;;;;;0.10;0.10;;;;;;;;;;5065437;28;20216;-71
2024/02/05 11:15:19;;;;;;;0.10;0.10;;;;;;;;;;5056115;28;20224;-72
2024/02/05 11:17:46;;;;;;;0.10;0.10;;;;;;;;;;5065514;28;20448;-70
2024/02/05 11:20:13;;;;;;;0.10;0.10;;;;;;;;;;5056118;28;20240;-71
2024/02/05 11:22:43;;;;;;;0.10;0.10;;;;;;;;;;5064976;28;20186;-71
2024/02/05 11:25:09;;;;;;;0.10;0.10;;;;;;;;;;5061963;28;20237;-71
2024/02/05 11:27:36;;;;;;;0.10;0.10;;;;;;;;;;5064643;28;20237;-71
2024/02/05 11:30:03;;;;;;;0.10;0.10;;;;;;;;;;5066119;28;20206;-71
2024/02/05 11:32:33;;;;;;;0.10;0.10;;;;;;;;;;5054572;28;20249;-71
2024/02/05 11:34:59;;;;;;;0.30;0.30;;;;;;;;;;5066111;28;20251;-71
2024/02/05 11:37:27;;;;;;;0.40;0.40;;;;;;;;;;5054359;28;20307;-72
2024/02/05 11:39:55;;;;;;;0.10;0.10;;;;;;;;;;5065610;28;20387;-71
2024/02/05 11:42:22;;;;;;;0.10;0.10;;;;;;;;;;5053675;28;20590;-71
2024/02/05 11:44:48;;;;;;;0.10;0.10;;;;;;;;;;5065454;28;20225;-71
2024/02/05 11:47:15;;;;;;;0.10;0.10;;;;;;;;;;5054182;28;20288;-71
2024/02/05 11:49:44;;;;;;;0.10;0.10;;;;;;;;;;5065452;28;20410;-70
2024/02/05 11:52:12;;;;;;;0.10;0.10;;;;;;;;;;5054131;28;20461;-71
2024/02/05 11:54:39;;;;;;;0.10;0.10;;;;;;;;;;5065654;28;20267;-71
2024/02/05 11:57:05;;;;;;;0.10;0.10;;;;;;;;;;5054203;28;20427;-71
2024/02/05 11:59:31;;;;;;;0.10;0.10;;;;;;;;;;5065468;28;20206;-71
2024/02/05 12:01:58;;;;;;;0.10;0.10;;;;;;;;;;5054171;28;20310;-71
2024/02/05 12:04:24;;;;;;;0.10;0.10;;;;;;;;;;5064837;28;20488;-71
2024/02/05 12:06:53;;;;;;;0.50;0.50;;;;;;;;;;5053953;28;20284;-71
2024/02/05 12:09:20;;;;;;;0.10;0.10;;;;;;;;;;5065237;28;20457;-70
2024/02/05 12:11:46;;;;;;;0.10;0.10;;;;;;;;;;5054157;28;20245;-71
2024/02/05 12:14:12;;;;;;;0.10;0.10;;;;;;;;;;5064805;28;20229;-70
2024/02/05 12:16:40;;;;;;;0.10;0.10;;;;;;;;;;5054038;28;20247;-70
2024/02/05 12:19:08;;;;;;;0.10;0.10;;;;;;;;;;5064515;28;20215;-71
2024/02/05 12:21:35;;;;;;;0.10;0.10;;;;;;;;;;5054141;28;20507;-71
2024/02/05 12:24:03;;;;;;;0.07;0.07;;;;;;;;;;5064811;28;20234;-71
2024/02/05 12:26:29;;;;;;;0.10;0.10;;;;;;;;;;5054064;28;20245;-72
2024/02/05 12:28:56;;;;;;;0.10;0.10;;;;;;;;;;5064376;28;20275;-71
2024/02/05 12:31:23;;;;;;;0.10;0.10;;;;;;;;;;5054057;28;20286;-72
2024/02/05 12:33:49;;;;;;;0.10;0.10;;;;;;;;;;5064637;28;20200;-71
2024/02/05 12:36:16;;;;;;;0.10;0.10;;;;;;;;;;5053909;28;20243;-71
2024/02/05 12:38:43;;;;;;;0.10;0.10;;;;;;;;;;5064561;28;20233;-71
2024/02/05 12:41:11;;;;;;;0.10;0.10;;;;;;;;;;5054147;28;20315;-71
2024/02/05 12:43:37;;;;;;;0.10;0.10;;;;;;;;;;5064051;28;20230;-71
2024/02/05 12:46:04;;;;;;;0.10;0.10;;;;;;;;;;5053674;28;20247;-71
2024/02/05 12:48:30;;;;;;;0.10;0.10;;;;;;;;;;5063896;28;20240;-72
2024/02/05 12:50:57;;;;;;;0.38;0.38;;;;;;;;;;5053979;28;20241;-72
2024/02/05 12:53:23;;;;;;;0.10;0.10;;;;;;;;;;5063748;28;20231;-72
2024/02/05 12:55:51;;;;;;;0.10;0.10;;;;;;;;;;5053085;28;20418;-73
2024/02/05 12:58:19;;;;;;;0.00;0.00;;;;;;;;;;5064024;28;20206;-73
2024/02/05 13:00:46;;;;;;;0.10;0.10;;;;;;;;;;5053691;28;20286;-71
2024/02/05 13:03:13;;;;;;;0.22;0.22;;;;;;;;;;5063752;28;20193;-73
2024/02/05 13:05:41;;;;;;;0.10;0.10;;;;;;;;;;5053917;28;20464;-72
2024/02/05 13:08:08;;;;;;;0.10;0.10;;;;;;;;;;5063312;28;20446;-72
2024/02/05 13:10:39;;;;;;;0.05;0.05;;;;;;;;;;5053820;28;20242;-72
2024/02/05 13:13:06;;;;;;;0.03;0.03;;;;;;;;;;5063725;28;20228;-72
2024/02/05 13:15:33;;;;;;;0.08;0.08;;;;;;;;;;5053832;28;20248;-73
2024/02/05 13:18:04;;;;;;;0.00;0.00;;;;;;;;;;5063192;28;20223;-75
2024/02/05 13:20:31;;;;;;;0.00;0.00;;;;;;;;;;5053640;28;20450;-74
2024/02/05 13:22:57;;;;;;;0.00;0.00;;;;;;;;;;5063273;28;20216;-74
2024/02/05 13:25:23;;;;;;;0.10;0.10;;;;;;;;;;5053305;28;20247;-74
2024/02/05 13:27:50;;;;;;;0.03;0.03;;;;;;;;;;5063175;28;20594;-74
2024/02/05 13:30:17;;;;;;;0.00;0.00;;;;;;;;;;5053492;28;20207;-74
2024/02/05 13:32:45;;;;;;;0.00;0.00;;;;;;;;;;5062720;28;20197;-74
2024/02/05 13:35:11;;;;;;;0.10;0.10;;;;;;;;;;5053660;28;20436;-74
2024/02/05 13:37:38;;;;;;;0.10;0.10;;;;;;;;;;5062486;28;20201;-74
2024/02/05 13:40:05;;;;;;;0.10;0.10;;;;;;;;;;5063743;28;20276;-74
2024/02/05 13:42:38;;;;;;;0.10;0.10;;;;;;;;;;5052230;28;20240;-74
2024/02/05 13:45:05;;;;;;;0.10;0.10;;;;;;;;;;5063837;28;20251;-73
2024/02/05 13:47:31;;;;;;;0.10;0.10;;;;;;;;;;5052181;28;20445;-73
2024/02/05 13:49:59;;;;;;;0.10;0.10;;;;;;;;;;5063446;28;20207;-74
2024/02/05 13:52:26;;;;;;;0.10;0.10;;;;;;;;;;5052133;28;20249;-73
2024/02/05 13:54:52;;;;;;;0.10;0.10;;;;;;;;;;5063459;28;20309;-74
2024/02/05 13:57:18;;;;;;;0.10;0.10;;;;;;;;;;5052108;28;20256;-74
2024/02/05 13:59:45;;;;;;;0.00;0.00;;;;;;;;;;5063357;28;20197;-73
2024/02/05 14:02:11;;;;;;;0.10;0.10;;;;;;;;;;5051879;28;20320;-73
2024/02/05 14:04:38;;;;;;;0.10;0.10;;;;;;;;;;5063211;28;20234;-73
2024/02/05 14:07:06;;;;;;;0.10;0.10;;;;;;;;;;5051623;28;20276;-73
2024/02/05 14:09:32;;;;;;;0.10;0.10;;;;;;;;;;5063175;28;20233;-74
2024/02/05 14:11:59;;;;;;;0.10;0.10;;;;;;;;;;5051866;28;20318;-74
2024/02/05 14:14:25;;;;;;;0.10;0.10;;;;;;;;;;5062983;28;20308;-74
2024/02/05 14:16:52;;;;;;;0.10;0.10;;;;;;;;;;5051977;28;20242;-73
2024/02/05 14:19:18;;;;;;;0.10;0.10;;;;;;;;;;5063170;28;20212;-75
2024/02/05 14:21:45;;;;;;;0.00;0.00;;;;;;;;;;5051968;28;20486;-74
2024/02/05 14:24:12;;;;;;;0.00;0.00;;;;;;;;;;5062722;28;20264;-74
2024/02/05 14:26:39;;;;;;;0.10;0.10;;;;;;;;;;5052081;28;20307;-74
2024/02/05 14:29:05;;;;;;;0.10;0.10;;;;;;;;;;5062689;28;20277;-75
2024/02/05 14:31:32;;;;;;;0.10;0.10;;;;;;;;;;5051942;28;20255;-75
2024/02/05 14:33:58;;;;;;;0.10;0.10;;;;;;;;;;5062947;28;20225;-74
2024/02/05 14:36:24;;;;;;;0.05;0.05;;;;;;;;;;5052241;28;20244;-74
2024/02/05 14:38:51;;;;;;;0.08;0.08;;;;;;;;;;5062393;28;20285;-74
2024/02/05 14:41:18;;;;;;;0.10;0.10;;;;;;;;;;5052074;28;20253;-74